createdAt,value
2023-04-15T15:02:39.748Z,58.01
2023-04-15T15:05:10.583Z,57.95
2023-04-15T15:07:39.561Z,58.02
2023-04-15T15:10:07.886Z,58.13
2023-04-15T15:12:36.102Z,58.22
2023-04-15T15:15:15.570Z,58.32
2023-04-15T15:17:47.529Z,58.29
2023-04-15T15:20:16.732Z,58.43
2023-04-15T15:22:44.435Z,58.39
2023-04-15T15:25:12.186Z,58.53
2023-04-15T15:27:40.489Z,58.61
2023-04-15T15:30:08.714Z,58.70
2023-04-15T15:32:36.534Z,58.76
2023-04-15T15:35:04.728Z,58.88
2023-04-15T15:37:32.520Z,59.00
2023-04-15T15:40:01.015Z,58.99
2023-04-15T15:42:32.613Z,58.94
2023-04-15T15:45:00.412Z,59.18
2023-04-15T15:47:28.242Z,59.16
2023-04-15T15:49:56.220Z,59.27
2023-04-15T15:52:24.041Z,59.39
2023-04-15T15:54:51.753Z,59.30
2023-04-15T15:57:19.639Z,59.37
2023-04-15T15:59:47.876Z,59.52
2023-04-15T16:02:15.833Z,59.43
2023-04-15T16:04:43.801Z,59.42
2023-04-15T16:07:15.840Z,59.58
2023-04-15T16:09:43.892Z,59.62
2023-04-15T16:12:11.774Z,59.69
2023-04-15T16:14:40.033Z,59.69
2023-04-15T16:17:07.822Z,59.68
2023-04-15T16:19:35.833Z,59.71
2023-04-15T16:22:03.762Z,59.52
2023-04-15T16:24:34.855Z,59.63
2023-04-15T16:27:03.571Z,59.73
2023-04-15T16:29:31.500Z,59.78
2023-04-15T16:31:59.253Z,59.75
2023-04-15T16:34:27.755Z,59.80
2023-04-15T16:36:56.233Z,59.92
2023-04-15T16:39:24.563Z,59.82
2023-04-15T16:41:52.584Z,60.02
2023-04-15T16:44:20.367Z,59.96
2023-04-15T16:46:48.155Z,60.06
2023-04-15T16:49:16.095Z,60.00
2023-04-15T16:51:44.474Z,60.12
2023-04-15T16:54:12.349Z,60.14
2023-04-15T16:56:40.048Z,60.24
2023-04-15T16:59:07.732Z,60.36
2023-04-15T17:01:35.624Z,60.40
2023-04-15T17:04:03.961Z,60.44
2023-04-15T17:06:31.839Z,60.50
2023-04-15T17:08:59.604Z,60.56
2023-04-15T17:11:28.582Z,60.53
2023-04-15T17:13:56.304Z,60.67
2023-04-15T17:16:24.102Z,60.71
2023-04-15T17:18:52.397Z,60.72
2023-04-15T17:21:20.274Z,60.69
2023-04-15T17:23:48.027Z,60.92
2023-04-15T17:26:16.099Z,60.83
2023-04-15T17:28:43.844Z,60.90
2023-04-15T17:31:12.188Z,60.99
2023-04-15T17:34:03.251Z,60.99
2023-04-15T17:36:29.245Z,61.04
2023-04-15T17:38:57.226Z,61.06
2023-04-15T17:41:25.002Z,61.05
2023-04-15T17:43:52.750Z,61.06
2023-04-15T17:46:21.240Z,61.27
2023-04-15T17:48:49.569Z,61.28
2023-04-15T17:51:18.046Z,61.37
2023-04-15T17:53:45.913Z,61.36
2023-04-15T17:56:13.603Z,61.33
2023-04-15T17:58:41.370Z,61.53
2023-04-15T18:01:09.587Z,61.61
2023-04-15T18:03:37.430Z,61.72
2023-04-15T18:06:05.621Z,61.77
2023-04-15T18:08:33.327Z,61.96
2023-04-15T18:11:01.097Z,61.96
2023-04-15T18:13:28.873Z,61.93
2023-04-15T18:15:57.240Z,62.08
2023-04-15T18:18:25.214Z,62.28
2023-04-15T18:20:52.909Z,62.38
2023-04-15T18:23:20.761Z,62.37
2023-04-15T18:25:48.536Z,62.30
2023-04-15T18:28:16.358Z,62.29
2023-04-15T18:30:44.247Z,62.32
2023-04-15T18:33:12.593Z,62.53
2023-04-15T18:35:42.790Z,62.50
2023-04-15T18:38:10.950Z,62.65
2023-04-15T18:40:38.689Z,62.82
2023-04-15T18:43:06.770Z,62.54
2023-04-15T18:45:34.570Z,62.74
2023-04-15T18:48:03.423Z,62.90
2023-04-15T18:50:31.200Z,62.93
2023-04-15T18:52:59.191Z,63.15
2023-04-15T18:55:26.930Z,63.11
2023-04-15T18:57:54.736Z,63.18
2023-04-15T19:00:24.582Z,63.35
2023-04-15T19:02:53.032Z,63.50
2023-04-15T19:05:21.083Z,63.22
2023-04-15T19:07:51.294Z,63.38
2023-04-15T19:10:19.145Z,63.38
2023-04-15T19:12:46.903Z,63.38
2023-04-15T19:15:14.881Z,63.46
2023-04-15T19:17:43.141Z,63.65
2023-04-15T19:20:11.013Z,63.81
2023-04-15T19:22:38.846Z,63.72
2023-04-15T19:25:06.863Z,63.94
2023-04-15T19:27:34.621Z,63.90
2023-04-15T19:30:03.480Z,63.85
2023-04-15T19:32:31.909Z,64.00
2023-04-15T19:34:59.788Z,63.99
2023-04-15T19:37:27.914Z,64.01
2023-04-15T19:39:56.181Z,64.15
2023-04-15T19:42:23.974Z,64.16
2023-04-15T19:44:52.249Z,64.18
2023-04-15T19:47:20.090Z,64.25
2023-04-15T19:49:47.924Z,64.26
2023-04-15T19:52:16.342Z,64.32
2023-04-15T19:54:44.341Z,64.49
2023-04-15T19:57:12.149Z,64.45
2023-04-15T19:59:41.208Z,64.55
2023-04-15T20:02:09.718Z,64.54
2023-04-15T20:04:37.986Z,64.59
2023-04-15T20:07:05.818Z,64.68
2023-04-15T20:09:33.596Z,64.68
2023-04-15T20:12:05.984Z,64.75
2023-04-15T20:14:49.723Z,64.84
2023-04-15T20:17:17.863Z,64.75
2023-04-15T20:19:48.297Z,64.78
2023-04-15T20:22:17.955Z,65.02
2023-04-15T20:24:45.753Z,64.98
2023-04-15T20:27:13.428Z,65.10
2023-04-15T20:29:41.578Z,64.88
2023-04-15T20:32:11.622Z,64.99
2023-04-15T20:34:42.831Z,65.12
2023-04-15T20:37:12.228Z,65.24
2023-04-15T20:39:41.387Z,65.23
2023-04-15T20:42:11.794Z,65.06
2023-04-15T20:44:40.741Z,65.40
2023-04-15T20:47:09.181Z,65.09
2023-04-15T20:49:38.943Z,65.06
2023-04-15T20:52:08.024Z,64.71
2023-04-15T20:54:35.731Z,65.18
2023-04-15T20:57:03.752Z,65.30
2023-04-15T20:59:32.956Z,65.56
2023-04-15T21:02:01.555Z,65.58
2023-04-15T21:04:29.924Z,65.60
2023-04-15T21:06:57.750Z,65.47
2023-04-15T21:09:25.539Z,65.49
2023-04-15T21:12:01.056Z,65.48
2023-04-15T21:14:30.243Z,65.70
2023-04-15T21:16:58.608Z,65.71
2023-04-15T21:19:26.394Z,65.57
2023-04-15T21:21:54.068Z,65.63
2023-04-15T21:24:21.836Z,65.83
2023-04-15T21:26:49.563Z,65.72
2023-04-15T21:29:17.937Z,65.83
2023-04-15T21:31:46.727Z,65.72
2023-04-15T21:34:14.548Z,65.74
2023-04-15T21:36:42.360Z,65.80
2023-04-15T21:39:10.171Z,65.58
2023-04-15T21:41:38.045Z,65.54
2023-04-15T21:44:06.302Z,65.62
2023-04-15T21:46:35.063Z,65.91
2023-04-15T21:49:03.679Z,65.93
2023-04-15T21:51:32.703Z,66.00
2023-04-15T21:54:00.556Z,65.88
2023-04-15T21:56:29.090Z,65.88
2023-04-15T21:58:57.813Z,66.02
2023-04-15T22:01:26.786Z,66.18
2023-04-15T22:03:55.124Z,66.03
2023-04-15T22:06:23.070Z,66.22
2023-04-15T22:08:56.715Z,66.23
2023-04-15T22:11:30.467Z,66.33
2023-04-15T22:13:59.249Z,66.29
2023-04-15T22:16:27.758Z,66.46
2023-04-15T22:18:56.185Z,66.52
2023-04-15T22:21:24.211Z,66.50
2023-04-15T22:23:53.074Z,66.63
2023-04-15T22:26:41.414Z,66.62
2023-04-15T22:29:09.355Z,66.57
2023-04-15T22:31:37.206Z,66.70
2023-04-15T22:34:05.103Z,66.85
2023-04-15T22:36:32.788Z,66.81
2023-04-15T22:39:00.603Z,66.80
2023-04-15T22:41:29.113Z,66.90
2023-04-15T22:43:56.814Z,67.06
2023-04-15T22:46:24.558Z,66.97
2023-04-15T22:48:54.295Z,67.10
2023-04-15T22:51:28.008Z,67.09
2023-04-15T22:53:56.575Z,67.12
2023-04-15T22:56:24.871Z,67.00
2023-04-15T22:58:52.550Z,67.02
2023-04-15T23:01:21.280Z,67.04
2023-04-15T23:03:57.541Z,67.14
2023-04-15T23:06:33.813Z,67.23
2023-04-15T23:09:01.498Z,67.01
2023-04-15T23:11:29.253Z,67.27
2023-04-15T23:13:57.198Z,67.15
2023-04-15T23:16:25.047Z,67.26
2023-04-15T23:18:52.935Z,67.34
2023-04-15T23:21:20.982Z,67.26
2023-04-15T23:23:48.792Z,67.28
2023-04-15T23:26:16.536Z,67.30
2023-04-15T23:28:44.279Z,67.18
2023-04-15T23:31:12.045Z,67.39
2023-04-15T23:33:39.934Z,67.41
2023-04-15T23:36:07.850Z,67.40
2023-04-15T23:38:35.812Z,67.39
2023-04-15T23:41:03.642Z,67.45
2023-04-15T23:43:31.405Z,67.42
2023-04-15T23:45:59.127Z,67.55
2023-04-15T23:48:26.960Z,67.55
2023-04-15T23:50:54.671Z,67.65
2023-04-15T23:53:22.461Z,67.70
2023-04-15T23:55:50.261Z,67.85
2023-04-15T23:58:18.041Z,67.85
